createdAt,value
2018-08-11T00:01:03.165Z,94923.81
2018-08-11T00:03:32.547Z,94924.33
2018-08-11T00:06:01.911Z,94924.15
2018-08-11T00:08:31.775Z,94917.59
2018-08-11T00:11:01.207Z,94912.97
2018-08-11T00:13:30.807Z,94916.85
2018-08-11T00:16:00.174Z,94912.63
2018-08-11T00:18:29.693Z,94907.75
2018-08-11T00:20:59.513Z,94903.71
2018-08-11T00:23:29.060Z,94906.08
2018-08-11T00:25:58.886Z,94906.83
2018-08-11T00:28:28.236Z,94907.35
2018-08-11T00:30:57.534Z,94909.74
2018-08-11T00:33:26.933Z,94907.69
2018-08-11T00:35:56.422Z,94908.20
2018-08-11T00:38:26.152Z,94900.63
2018-08-11T00:40:55.764Z,94901.03
2018-08-11T00:43:25.443Z,94901.26
2018-08-11T00:45:54.577Z,94900.06
2018-08-11T00:48:23.983Z,94900.30
2018-08-11T00:50:53.559Z,94889.80
2018-08-11T00:53:22.834Z,94885.36
2018-08-11T00:55:52.190Z,94883.73
2018-08-11T00:58:21.851Z,94882.97
2018-08-11T01:00:51.474Z,94880.41
2018-08-11T01:03:20.977Z,94871.83
2018-08-11T01:05:50.818Z,94873.25
2018-08-11T01:08:19.888Z,94864.20
2018-08-11T01:10:48.978Z,94870.06
2018-08-11T01:13:18.362Z,94867.16
2018-08-11T01:15:47.402Z,94870.44
2018-08-11T01:18:16.618Z,94871.86
2018-08-11T01:20:46.912Z,94872.39
2018-08-11T01:23:16.585Z,94859.69
2018-08-11T01:25:46.576Z,94861.45
2018-08-11T01:28:16.051Z,94858.52
2018-08-11T01:30:45.849Z,94850.06
2018-08-11T01:33:15.928Z,94840.45
2018-08-11T01:35:45.713Z,94850.41
2018-08-11T01:38:15.045Z,94862.41
2018-08-11T01:40:44.495Z,94863.37
2018-08-11T01:43:15.293Z,94863.32
2018-08-11T01:45:45.350Z,94857.88
2018-08-11T01:48:14.694Z,94857.70
2018-08-11T01:50:44.145Z,94852.80
2018-08-11T01:53:13.654Z,94864.59
2018-08-11T01:55:43.225Z,94869.48
2018-08-11T01:58:12.530Z,94861.56
2018-08-11T02:00:41.909Z,94854.63
2018-08-11T02:03:11.546Z,94855.42
2018-08-11T02:05:41.154Z,94855.25
2018-08-11T02:08:10.665Z,94854.63
2018-08-11T02:10:40.883Z,94858.09
2018-08-11T02:13:11.056Z,94854.16
2018-08-11T02:15:40.435Z,94849.84
2018-08-11T02:18:10.463Z,94851.38
2018-08-11T02:20:40.169Z,94854.56
2018-08-11T02:23:09.458Z,94849.27
2018-08-11T02:25:39.465Z,94853.30
2018-08-11T02:28:09.484Z,94847.61
2018-08-11T02:30:38.775Z,94848.58
2018-08-11T02:33:08.187Z,94845.58
2018-08-11T02:35:37.546Z,94841.39
2018-08-11T02:38:07.194Z,94843.22
2018-08-11T02:40:37.325Z,94854.61
2018-08-11T02:43:06.525Z,94853.85
2018-08-11T02:45:37.358Z,94856.72
2018-08-11T02:48:07.352Z,94853.92
2018-08-11T02:50:36.976Z,94859.45
2018-08-11T02:53:06.325Z,94856.77
2018-08-11T02:55:35.648Z,94860.42
2018-08-11T02:58:05.078Z,94855.54
2018-08-11T03:00:35.308Z,94856.85
2018-08-11T03:03:05.538Z,94859.47
2018-08-11T03:05:34.561Z,94858.45
2018-08-11T03:08:03.735Z,94859.52
2018-08-11T03:10:33.941Z,94858.37
2018-08-11T03:13:03.788Z,94859.73
2018-08-11T03:15:33.799Z,94861.78
2018-08-11T03:18:03.685Z,94859.34
2018-08-11T03:20:33.014Z,94862.47
2018-08-11T03:23:02.250Z,94852.45
2018-08-11T03:25:31.697Z,94851.33
2018-08-11T03:28:01.090Z,94848.99
2018-08-11T03:30:30.372Z,94847.40
2018-08-11T03:33:00.160Z,94850.36
2018-08-11T03:35:29.584Z,94846.89
2018-08-11T03:37:58.961Z,94847.05
2018-08-11T03:40:28.384Z,94843.58
2018-08-11T03:42:58.658Z,94834.92
2018-08-11T03:45:28.217Z,94836.00
2018-08-11T03:47:57.574Z,94836.52
2018-08-11T03:50:27.033Z,94833.56
2018-08-11T03:52:56.417Z,94833.61
2018-08-11T03:55:25.757Z,94832.92
2018-08-11T03:57:55.266Z,94838.23
2018-08-11T04:00:24.589Z,94839.23
2018-08-11T04:02:54.962Z,94839.18
2018-08-11T04:05:24.638Z,94839.29
2018-08-11T04:07:54.285Z,94839.08
2018-08-11T04:10:23.645Z,94847.79
2018-08-11T04:12:52.955Z,94846.30
2018-08-11T04:15:22.566Z,94844.71
2018-08-11T04:17:53.956Z,94846.88
2018-08-11T04:20:23.383Z,94848.92
2018-08-11T04:22:53.574Z,94841.02
2018-08-11T04:25:23.075Z,94850.70
2018-08-11T04:27:52.607Z,94851.27
2018-08-11T04:30:22.808Z,94850.19
2018-08-11T04:32:53.368Z,94844.78
2018-08-11T04:35:23.760Z,94850.30
2018-08-11T04:37:53.249Z,94847.45
2018-08-11T04:40:22.640Z,94849.38
2018-08-11T04:42:52.996Z,94846.99
2018-08-11T04:45:22.502Z,94853.83
2018-08-11T04:47:52.074Z,94855.53
2018-08-11T04:50:21.469Z,94850.86
2018-08-11T04:52:50.803Z,94848.47
2018-08-11T04:55:20.045Z,94847.75
2018-08-11T04:57:49.475Z,94852.12
2018-08-11T05:00:18.928Z,94857.05
2018-08-11T05:02:48.444Z,94849.16
2018-08-11T05:05:19.745Z,94847.44
2018-08-11T05:07:49.105Z,94849.16
2018-08-11T05:10:18.644Z,94851.55
2018-08-11T05:12:50.370Z,94855.83
2018-08-11T05:15:19.952Z,94849.72
2018-08-11T05:17:49.146Z,94859.08
2018-08-11T05:20:19.870Z,94863.76
2018-08-11T05:22:49.196Z,94856.92
2018-08-11T05:25:18.666Z,94861.70
2018-08-11T05:27:51.027Z,94862.91
2018-08-11T05:30:20.495Z,94865.40
2018-08-11T05:32:50.491Z,94866.30
2018-08-11T05:35:20.739Z,94865.27
2018-08-11T05:37:50.242Z,94872.07
2018-08-11T05:40:21.906Z,94865.73
2018-08-11T05:42:51.191Z,94869.89
2018-08-11T05:45:21.519Z,94873.08
2018-08-11T05:47:50.861Z,94866.81
2018-08-11T05:50:20.547Z,94872.50
2018-08-11T05:52:51.481Z,94876.58
2018-08-11T05:55:21.153Z,94871.75
2018-08-11T05:57:54.165Z,94870.14
2018-08-11T06:00:23.689Z,94868.27
2018-08-11T06:02:53.088Z,94873.34
2018-08-11T06:05:22.688Z,94872.56
2018-08-11T06:07:52.295Z,94869.28
2018-08-11T06:10:21.796Z,94864.80
2018-08-11T06:12:53.060Z,94870.78
2018-08-11T06:15:22.519Z,94873.95
2018-08-11T06:17:52.034Z,94877.20
2018-08-11T06:20:21.472Z,94876.25
2018-08-11T06:22:54.195Z,94878.00
2018-08-11T06:25:24.962Z,94885.46
2018-08-11T06:28:01.456Z,94892.83
2018-08-11T06:30:31.014Z,94891.14
2018-08-11T06:33:00.697Z,94893.84
2018-08-11T06:35:30.605Z,94897.97
2018-08-11T06:38:00.050Z,94900.12
2018-08-11T06:40:29.740Z,94896.42
2018-08-11T06:42:59.166Z,94897.49
2018-08-11T06:45:29.567Z,94888.17
2018-08-11T06:47:59.138Z,94884.03
2018-08-11T06:50:29.802Z,94885.06
2018-08-11T06:53:00.519Z,94879.52
2018-08-11T06:55:30.046Z,94885.64
2018-08-11T06:58:00.532Z,94885.61
2018-08-11T07:00:30.202Z,94878.89
2018-08-11T07:02:59.646Z,94884.18
2018-08-11T07:05:29.167Z,94891.03
2018-08-11T07:08:00.274Z,94884.88
2018-08-11T07:10:29.976Z,94885.48
2018-08-11T07:13:00.737Z,94885.03
2018-08-11T07:15:31.211Z,94882.70
2018-08-11T07:18:00.430Z,94881.95
2018-08-11T07:20:31.453Z,94878.01
2018-08-11T07:23:00.776Z,94882.16
2018-08-11T07:25:31.059Z,94891.77
2018-08-11T07:28:02.360Z,94884.09
2018-08-11T07:30:31.775Z,94887.06
2018-08-11T07:33:01.938Z,94887.44
2018-08-11T07:35:32.109Z,94890.45
2018-08-11T07:38:02.951Z,94891.36
2018-08-11T07:40:32.468Z,94882.41
2018-08-11T07:43:04.029Z,94886.53
2018-08-11T07:45:33.722Z,94888.64
2018-08-11T07:48:03.812Z,94884.95
2018-08-11T07:50:33.094Z,94888.48
2018-08-11T07:53:02.436Z,94890.72
2018-08-11T07:55:31.696Z,94884.96
2018-08-11T07:58:02.093Z,94888.36
2018-08-11T08:00:33.142Z,94884.86
2018-08-11T08:03:04.775Z,94881.91
2018-08-11T08:05:36.521Z,94876.81
2018-08-11T08:08:06.031Z,94881.78
2018-08-11T08:10:35.522Z,94875.33
2018-08-11T08:13:05.012Z,94881.94
2018-08-11T08:15:34.586Z,94880.84
2018-08-11T08:18:04.850Z,94878.80
2018-08-11T08:20:34.399Z,94872.08
2018-08-11T08:23:04.408Z,94870.88
2018-08-11T08:25:35.230Z,94876.59
2018-08-11T08:28:05.130Z,94872.45
2018-08-11T08:30:36.295Z,94873.55
2018-08-11T08:33:06.497Z,94878.11
2018-08-11T08:35:37.214Z,94872.41
2018-08-11T08:38:07.910Z,94877.58
2018-08-11T08:40:37.943Z,94867.40
2018-08-11T08:43:08.023Z,94858.53
2018-08-11T08:45:38.712Z,94863.22
2018-08-11T08:48:10.498Z,94867.05
2018-08-11T08:50:39.890Z,94873.16
2018-08-11T08:53:09.679Z,94865.23
2018-08-11T08:55:40.217Z,94870.72
2018-08-11T08:58:09.574Z,94869.30
2018-08-11T09:00:39.671Z,94874.95
2018-08-11T09:03:09.124Z,94875.79
2018-08-11T09:05:38.444Z,94875.05
2018-08-11T09:08:09.639Z,94872.91
2018-08-11T09:10:40.350Z,94870.54
2018-08-11T09:13:11.105Z,94874.30
2018-08-11T09:15:41.736Z,94869.03
2018-08-11T09:18:11.500Z,94864.55
2018-08-11T09:20:41.832Z,94852.91
2018-08-11T09:23:11.167Z,94849.10
2018-08-11T09:25:40.853Z,94848.16
2018-08-11T09:28:11.242Z,94844.71
2018-08-11T09:30:41.214Z,94843.98
2018-08-11T09:33:10.772Z,94836.24
2018-08-11T09:35:41.332Z,94839.55
2018-08-11T09:38:12.244Z,94836.56
2018-08-11T09:40:42.069Z,94831.45
2018-08-11T09:43:12.066Z,94827.20
2018-08-11T09:45:41.965Z,94833.70
2018-08-11T09:48:12.558Z,94825.41
2018-08-11T09:50:42.424Z,94828.09
2018-08-11T09:53:11.789Z,94824.18
2018-08-11T09:55:41.471Z,94823.30
2018-08-11T09:58:10.943Z,94815.89
2018-08-11T10:00:45.654Z,94817.05
2018-08-11T10:03:16.675Z,94815.16
2018-08-11T10:05:46.368Z,94815.45
2018-08-11T10:08:16.509Z,94808.05
2018-08-11T10:10:46.398Z,94807.66
2018-08-11T10:13:15.901Z,94804.13
2018-08-11T10:15:46.033Z,94802.02
2018-08-11T10:18:17.000Z,94802.02
2018-08-11T10:20:46.593Z,94802.84
2018-08-11T10:23:16.219Z,94801.92
2018-08-11T10:25:46.076Z,94799.02
2018-08-11T10:28:16.674Z,94797.77
2018-08-11T10:30:46.651Z,94794.72
2018-08-11T10:33:17.226Z,94792.62
2018-08-11T10:35:47.302Z,94789.89
2018-08-11T10:38:17.719Z,94793.92
2018-08-11T10:40:47.318Z,94785.95
2018-08-11T10:43:16.819Z,94785.45
2018-08-11T10:45:46.525Z,94791.46
2018-08-11T10:48:16.155Z,94783.92
2018-08-11T10:50:45.821Z,94782.64
2018-08-11T10:53:15.857Z,94782.97
2018-08-11T10:55:45.671Z,94785.91
2018-08-11T10:58:15.830Z,94788.28
2018-08-11T11:00:47.687Z,94780.10
2018-08-11T11:03:18.560Z,94779.45
2018-08-11T11:05:49.478Z,94774.90
2018-08-11T11:08:19.100Z,94772.52
2018-08-11T11:10:48.512Z,94764.52
2018-08-11T11:13:17.997Z,94768.95
2018-08-11T11:15:47.444Z,94777.66
2018-08-11T11:18:17.456Z,94773.68
2018-08-11T11:20:47.299Z,94769.30
2018-08-11T11:23:16.660Z,94769.23
2018-08-11T11:25:47.919Z,94768.83
2018-08-11T11:28:17.656Z,94771.81
2018-08-11T11:30:46.967Z,94765.11
2018-08-11T11:33:16.466Z,94765.45
2018-08-11T11:35:46.790Z,94764.31
2018-08-11T11:38:16.330Z,94766.25
2018-08-11T11:40:45.847Z,94762.63
2018-08-11T11:43:15.120Z,94767.65
2018-08-11T11:45:44.579Z,94764.73
2018-08-11T11:48:13.965Z,94761.11
2018-08-11T11:50:43.700Z,94760.69
2018-08-11T11:53:13.041Z,94763.80
2018-08-11T11:55:43.190Z,94758.98
2018-08-11T11:58:12.908Z,94751.05
2018-08-11T12:00:42.496Z,94750.17
2018-08-11T12:03:11.873Z,94746.23
2018-08-11T12:05:42.283Z,94748.02
2018-08-11T12:08:11.639Z,94752.47
2018-08-11T12:10:42.429Z,94753.27
2018-08-11T12:13:11.850Z,94754.28
2018-08-11T12:15:41.265Z,94741.78
2018-08-11T12:18:10.708Z,94746.69
2018-08-11T12:20:40.209Z,94740.72
2018-08-11T12:23:10.829Z,94742.12
2018-08-11T12:25:40.274Z,94745.61
2018-08-11T12:28:09.690Z,94744.94
2018-08-11T12:30:39.463Z,94739.36
2018-08-11T12:33:08.766Z,94739.77
2018-08-11T12:35:39.199Z,94740.89
2018-08-11T12:38:08.611Z,94736.34
2018-08-11T12:40:38.027Z,94738.50
2018-08-11T12:43:07.368Z,94733.58
2018-08-11T12:45:36.816Z,94725.22
2018-08-11T12:48:06.372Z,94717.97
2018-08-11T12:50:35.840Z,94717.17
2018-08-11T12:53:05.170Z,94720.88
2018-08-11T12:55:34.473Z,94715.75
2018-08-11T12:58:03.951Z,94722.66
2018-08-11T13:00:33.397Z,94709.04
2018-08-11T13:03:02.689Z,94711.20
2018-08-11T13:05:35.218Z,94715.38
2018-08-11T13:08:04.557Z,94706.12
2018-08-11T13:10:34.280Z,94705.93
2018-08-11T13:13:03.982Z,94703.66
2018-08-11T13:15:33.579Z,94709.95
2018-08-11T13:18:04.519Z,94699.73
2018-08-11T13:20:33.959Z,94700.53
2018-08-11T13:23:03.400Z,94697.53
2018-08-11T13:25:34.090Z,94695.67
2018-08-11T13:28:03.517Z,94694.02
2018-08-11T13:30:33.162Z,94694.88
2018-08-11T13:33:02.804Z,94682.88
2018-08-11T13:35:32.424Z,94685.03
2018-08-11T13:38:02.054Z,94689.39
2018-08-11T13:40:32.146Z,94698.75
2018-08-11T13:43:01.498Z,94690.95
2018-08-11T13:45:30.680Z,94683.56
2018-08-11T13:48:00.048Z,94681.47
2018-08-11T13:50:29.593Z,94689.27
2018-08-11T13:52:59.231Z,94676.62
2018-08-11T13:55:28.630Z,94681.23
2018-08-11T13:57:58.517Z,94675.41
2018-08-11T14:00:27.892Z,94676.67
2018-08-11T14:02:57.397Z,94674.29
2018-08-11T14:05:26.678Z,94674.78
2018-08-11T14:07:56.147Z,94677.72
2018-08-11T14:10:26.142Z,94684.20
2018-08-11T14:12:55.571Z,94676.20
2018-08-11T14:15:25.790Z,94683.73
2018-08-11T14:17:56.000Z,94686.83
2018-08-11T14:20:25.393Z,94686.91
2018-08-11T14:22:54.715Z,94684.48
2018-08-11T14:25:24.139Z,94693.44
2018-08-11T14:27:53.565Z,94692.84
2018-08-11T14:30:22.933Z,94692.11
2018-08-11T14:32:52.365Z,94694.77
2018-08-11T14:35:22.302Z,94690.47
2018-08-11T14:37:51.886Z,94691.35
2018-08-11T14:40:21.472Z,94694.33
2018-08-11T14:42:54.397Z,94686.77
2018-08-11T14:45:25.002Z,94689.19
2018-08-11T14:47:56.039Z,94677.16
2018-08-11T14:50:25.454Z,94677.18
2018-08-11T14:52:54.914Z,94671.33
2018-08-11T14:55:24.211Z,94669.85
2018-08-11T14:57:53.765Z,94665.28
2018-08-11T15:00:24.231Z,94671.93
2018-08-11T15:02:53.729Z,94663.75
2018-08-11T15:05:23.292Z,94667.27
2018-08-11T15:07:52.704Z,94670.62
2018-08-11T15:10:22.366Z,94668.90
2018-08-11T15:12:53.019Z,94664.48
2018-08-11T15:15:23.014Z,94662.72
2018-08-11T15:17:52.335Z,94658.56
2018-08-11T15:20:21.882Z,94666.91
2018-08-11T15:22:51.324Z,94665.48
2018-08-11T15:25:22.478Z,94665.37
2018-08-11T15:27:51.958Z,94664.22
2018-08-11T15:30:22.391Z,94661.88
2018-08-11T15:32:52.935Z,94661.12
2018-08-11T15:35:22.246Z,94662.31
2018-08-11T15:37:51.989Z,94668.38
2018-08-11T15:40:22.560Z,94666.01
2018-08-11T15:42:52.351Z,94667.91
2018-08-11T15:45:21.815Z,94666.70
2018-08-11T15:47:51.206Z,94669.62
2018-08-11T15:50:20.599Z,94668.55
2018-08-11T15:52:51.073Z,94668.34
2018-08-11T15:55:21.087Z,94644.19
2018-08-11T15:57:51.093Z,94665.19
2018-08-11T16:00:20.623Z,94663.98
2018-08-11T16:02:50.006Z,94657.36
2018-08-11T16:05:19.528Z,94650.91
2018-08-11T16:07:49.008Z,94648.70
2018-08-11T16:10:18.366Z,94647.28
2018-08-11T16:12:48.715Z,94648.99
2018-08-11T16:15:17.971Z,94646.38
2018-08-11T16:17:48.916Z,94644.44
2018-08-11T16:20:18.995Z,94653.67
2018-08-11T16:22:50.030Z,94655.50
2018-08-11T16:25:19.845Z,94659.38
2018-08-11T16:27:49.344Z,94653.79
2018-08-11T16:30:19.105Z,94654.39
2018-08-11T16:32:48.914Z,94658.51
2018-08-11T16:35:18.317Z,94660.85
2018-08-11T16:37:48.605Z,94657.66
2018-08-11T16:40:17.980Z,94658.48
2018-08-11T16:42:47.445Z,94661.42
2018-08-11T16:45:17.252Z,94658.11
2018-08-11T16:47:46.665Z,94666.33
2018-08-11T16:50:16.128Z,94666.28
2018-08-11T16:52:46.592Z,94664.24
2018-08-11T16:55:16.088Z,94664.11
2018-08-11T16:57:45.722Z,94664.73
2018-08-11T17:00:16.086Z,94665.25
2018-08-11T17:02:46.087Z,94661.39
2018-08-11T17:05:15.583Z,94663.59
2018-08-11T17:07:44.755Z,94662.95
2018-08-11T17:10:13.934Z,94663.31
2018-08-11T17:12:43.582Z,94660.81
2018-08-11T17:15:13.308Z,94662.18
2018-08-11T17:17:42.642Z,94655.03
2018-08-11T17:20:11.939Z,94658.03
2018-08-11T17:22:42.162Z,94660.97
2018-08-11T17:25:11.648Z,94659.23
2018-08-11T17:27:41.042Z,94654.78
2018-08-11T17:30:24.295Z,94659.08
2018-08-11T17:32:53.837Z,94662.78
2018-08-11T17:35:24.588Z,94660.45
2018-08-11T17:37:55.157Z,94664.54
2018-08-11T17:40:24.836Z,94666.70
2018-08-11T17:42:54.529Z,94669.62
2018-08-11T17:45:24.035Z,94673.91
2018-08-11T17:47:54.319Z,94669.95
2018-08-11T17:50:24.928Z,94676.55
2018-08-11T17:52:54.296Z,94676.55
2018-08-11T17:55:23.792Z,94681.05
2018-08-11T17:57:53.418Z,94680.78
2018-08-11T18:00:22.959Z,94678.70
2018-08-11T18:02:52.538Z,94681.61
2018-08-11T18:08:12.404Z,94692.98
2018-08-11T18:10:42.053Z,94696.13
2018-08-11T18:13:13.922Z,94702.98
2018-08-11T18:15:44.194Z,94701.14
2018-08-11T18:18:13.860Z,94706.16
2018-08-11T18:20:42.970Z,94714.31
2018-08-11T18:23:13.611Z,94707.18
2018-08-11T18:25:43.335Z,94711.41
2018-08-11T18:28:12.742Z,94711.89
2018-08-11T18:30:42.622Z,94713.97
2018-08-11T18:33:11.936Z,94716.36
2018-08-11T18:35:41.413Z,94717.11
2018-08-11T18:38:11.132Z,94718.95
2018-08-11T18:40:41.606Z,94717.58
2018-08-11T18:43:15.454Z,94719.45
2018-08-11T18:45:44.987Z,94724.48
2018-08-11T18:48:14.925Z,94729.47
2018-08-11T18:50:45.110Z,94727.54
2018-08-11T18:53:14.855Z,94730.50
2018-08-11T18:55:47.652Z,94727.56
2018-08-11T18:58:18.433Z,94729.35
2018-08-11T19:00:49.976Z,94725.36
2018-08-11T19:03:19.444Z,94733.51
2018-08-11T19:05:49.172Z,94733.78
2018-08-11T19:08:18.857Z,94736.90
2018-08-11T19:10:48.666Z,94739.48
2018-08-11T19:13:19.028Z,94739.42
2018-08-11T19:15:50.082Z,94740.91
2018-08-11T19:18:20.410Z,94742.78
2018-08-11T19:20:51.324Z,94743.00
2018-08-11T19:23:21.039Z,94740.36
2018-08-11T19:25:50.910Z,94747.22
2018-08-11T19:28:20.774Z,94754.23
2018-08-11T19:30:52.178Z,94762.59
2018-08-11T19:33:22.657Z,94765.94
2018-08-11T19:35:52.111Z,94764.41
2018-08-11T19:38:21.647Z,94771.75
2018-08-11T19:40:52.622Z,94777.43
2018-08-11T19:43:22.190Z,94787.76
2018-08-11T19:45:51.757Z,94788.37
2018-08-11T19:48:21.502Z,94792.70
2018-08-11T19:50:51.010Z,94788.75
2018-08-11T19:53:20.877Z,94786.91
2018-08-11T19:55:53.014Z,94785.84
2018-08-11T19:58:22.368Z,94789.84
2018-08-11T20:00:52.176Z,94795.84
2018-08-11T20:03:21.510Z,94796.89
2018-08-11T20:05:51.286Z,94796.84
2018-08-11T20:08:21.080Z,94790.89
2018-08-11T20:10:50.986Z,94790.55
2018-08-11T20:13:20.378Z,94798.66
2018-08-11T20:15:49.877Z,94808.55
2018-08-11T20:18:20.164Z,94806.56
2018-08-11T20:20:50.412Z,94815.23
2018-08-11T20:23:20.555Z,94819.70
2018-08-11T20:25:50.617Z,94820.73
2018-08-11T20:28:20.242Z,94826.71
2018-08-11T20:30:50.628Z,94823.47
2018-08-11T20:33:20.195Z,94829.48
2018-08-11T20:35:49.779Z,94822.49
2018-08-11T20:38:19.810Z,94823.77
2018-08-11T20:40:49.391Z,94820.22
2018-08-11T20:43:18.818Z,94825.64
2018-08-11T20:45:49.794Z,94825.80
2018-08-11T20:48:19.375Z,94835.95
2018-08-11T20:50:49.372Z,94831.66
2018-08-11T20:53:18.875Z,94830.02
2018-08-11T20:55:48.980Z,94831.65
2018-08-11T20:58:18.697Z,94830.63
2018-08-11T21:00:48.121Z,94833.44
2018-08-11T21:03:17.489Z,94829.51
2018-08-11T21:05:46.988Z,94833.45
2018-08-11T21:08:17.931Z,94829.45
2018-08-11T21:10:48.139Z,94826.67
2018-08-11T21:13:18.910Z,94822.97
2018-08-11T21:15:48.904Z,94821.65
2018-08-11T21:18:18.765Z,94829.44
2018-08-11T21:20:48.265Z,94831.95
2018-08-11T21:23:18.339Z,94835.72
2018-08-11T21:25:47.758Z,94837.04
2018-08-11T21:28:17.360Z,94839.74
2018-08-11T21:30:46.980Z,94836.60
2018-08-11T21:33:16.708Z,94841.66
2018-08-11T21:35:46.207Z,94839.75
2018-08-11T21:38:15.736Z,94829.95
2018-08-11T21:40:45.248Z,94840.67
2018-08-11T21:43:14.707Z,94841.61
2018-08-11T21:45:44.038Z,94841.89
2018-08-11T21:48:14.073Z,94836.88
2018-08-11T21:50:44.236Z,94842.39
2018-08-11T21:53:17.702Z,94843.00
2018-08-11T21:55:47.152Z,94840.14
2018-08-11T21:58:16.894Z,94839.80
2018-08-11T22:00:51.421Z,94845.20
2018-08-11T22:03:20.845Z,94839.91
2018-08-11T22:05:51.124Z,94843.73
2018-08-11T22:08:20.603Z,94841.39
2018-08-11T22:10:51.261Z,94834.34
2018-08-11T22:13:20.789Z,94835.48
2018-08-11T22:15:50.429Z,94832.25
2018-08-11T22:18:19.797Z,94835.77
2018-08-11T22:20:49.255Z,94841.42
2018-08-11T22:23:18.706Z,94842.80
2018-08-11T22:25:48.174Z,94842.28
2018-08-11T22:28:17.473Z,94840.92
2018-08-11T22:30:47.655Z,94840.02
2018-08-11T22:33:17.034Z,94835.31
2018-08-11T22:35:46.552Z,94830.59
2018-08-11T22:38:16.103Z,94830.12
2018-08-11T22:40:45.591Z,94829.05
2018-08-11T22:43:15.912Z,94836.46
2018-08-11T22:45:45.280Z,94834.07
2018-08-11T22:48:15.628Z,94839.08
2018-08-11T22:50:44.887Z,94842.08
2018-08-11T22:53:15.186Z,94838.38
2018-08-11T22:55:44.548Z,94838.05
2018-08-11T22:58:14.454Z,94840.81
2018-08-11T23:00:43.941Z,94844.45
2018-08-11T23:03:14.366Z,94842.86
2018-08-11T23:05:43.477Z,94837.00
2018-08-11T23:08:12.926Z,94839.28
2018-08-11T23:10:43.553Z,94844.52
2018-08-11T23:13:12.893Z,94841.78
2018-08-11T23:15:42.448Z,94843.91
2018-08-11T23:18:12.145Z,94846.76
2018-08-11T23:20:44.068Z,94842.83
2018-08-11T23:23:13.616Z,94846.23
2018-08-11T23:25:42.949Z,94846.64
2018-08-11T23:28:13.843Z,94841.97
2018-08-11T23:30:43.423Z,94833.72
2018-08-11T23:33:13.224Z,94837.77
2018-08-11T23:35:43.799Z,94841.11
2018-08-11T23:38:13.179Z,94837.08
2018-08-11T23:40:42.525Z,94830.53
2018-08-11T23:43:11.992Z,94832.17
2018-08-11T23:45:41.451Z,94832.17
2018-08-11T23:48:11.603Z,94827.24
2018-08-11T23:50:41.276Z,94822.67
2018-08-11T23:53:10.976Z,94818.05
2018-08-11T23:55:41.528Z,94813.40
2018-08-11T23:58:11.566Z,94806.55
